RYR82YZ LEPA-LOWW
Flight info
| Callsign | RYR82YZ |
|---|---|
| Flight time | 2h 12m |
| Altitude | 36000 |
| Route | ISTER DCT NIVDA DCT OMEDA DCT RAPUR DCT TORTU DCT ERTEV/N0434F370 DCT BARPI DCT LAPNA LAPNA2W |
| Aircraft | B738/M-SDE2E3FGHIRWXY/LB1 |
Departure
| Time | 2026-04-26 21:35 |
|---|---|
| Airport | Palma de Mallorca Airport (LEPA) |
Arrival
| Time | 2026-04-26 23:47 |
|---|---|
| Airport | Vienna International Airport (LOWW) |
| Time | Latitude | Longitude | Altitude | Speed | Heading |
|---|---|---|---|---|---|
| 2026-04-26 21:02 | 39.55069 | 2.73585 | 35 ft | 0 kts | 165° |
| 2026-04-26 21:26 | 39.55082 | 2.73580 | 34 ft | 2 kts | 165° |
| 2026-04-26 21:26 | 39.55093 | 2.73576 | 34 ft | 0 kts | 165° |
| 2026-04-26 21:27 | 39.55105 | 2.73570 | 34 ft | 2 kts | 127° |
| 2026-04-26 21:27 | 39.55109 | 2.73552 | 34 ft | 2 kts | 83° |
| 2026-04-26 21:27 | 39.55107 | 2.73541 | 34 ft | 1 kts | 56° |
| 2026-04-26 21:27 | 39.55103 | 2.73534 | 34 ft | 0 kts | 58° |
| 2026-04-26 21:29 | 39.55104 | 2.73535 | 34 ft | 0 kts | 57° |
| 2026-04-26 21:29 | 39.55137 | 2.73607 | 34 ft | 17 kts | 58° |
| 2026-04-26 21:30 | 39.55172 | 2.73781 | 34 ft | 14 kts | 83° |
| 2026-04-26 21:30 | 39.55238 | 2.73797 | 34 ft | 10 kts | 332° |
| 2026-04-26 21:30 | 39.55327 | 2.73727 | 34 ft | 22 kts | 328° |
| 2026-04-26 21:30 | 39.55422 | 2.73651 | 34 ft | 24 kts | 329° |
| 2026-04-26 21:31 | 39.55615 | 2.73509 | 34 ft | 19 kts | 346° |
| 2026-04-26 21:31 | 39.55707 | 2.73613 | 34 ft | 18 kts | 58° |
| 2026-04-26 21:31 | 39.55774 | 2.73750 | 34 ft | 17 kts | 60° |
| 2026-04-26 21:31 | 39.55840 | 2.73896 | 34 ft | 19 kts | 59° |
| 2026-04-26 21:32 | 39.55909 | 2.74043 | 34 ft | 18 kts | 58° |
| 2026-04-26 21:32 | 39.55977 | 2.74181 | 34 ft | 17 kts | 55° |
| 2026-04-26 21:32 | 39.56067 | 2.74277 | 34 ft | 14 kts | 34° |
| 2026-04-26 21:32 | 39.56133 | 2.74335 | 34 ft | 6 kts | 34° |
| 2026-04-26 21:33 | 39.56141 | 2.74341 | 34 ft | 0 kts | 34° |
| 2026-04-26 21:33 | 39.56168 | 2.74361 | 34 ft | 12 kts | 20° |
| 2026-04-26 21:34 | 39.56228 | 2.74273 | 34 ft | 18 kts | 250° |
| 2026-04-26 21:34 | 39.56213 | 2.74236 | 34 ft | 0 kts | 238° |
| 2026-04-26 21:34 | 39.56212 | 2.74234 | 34 ft | 4 kts | 238° |
| 2026-04-26 21:34 | 39.56067 | 2.73928 | 34 ft | 73 kts | 238° |
| 2026-04-26 21:35 | 39.55691 | 2.73133 | 34 ft | 131 kts | 239° |
| 2026-04-26 21:35 | 39.55134 | 2.71956 | 133 ft | 167 kts | 239° |
| 2026-04-26 21:35 | 39.54537 | 2.70684 | 679 ft | 169 kts | 238° |
| 2026-04-26 21:35 | 39.53873 | 2.69424 | 1111 ft | 171 kts | 231° |
| 2026-04-26 21:36 | 39.53173 | 2.68083 | 1503 ft | 189 kts | 240° |
| 2026-04-26 21:36 | 39.52743 | 2.67085 | 1759 ft | 198 kts | 240° |
| 2026-04-26 21:36 | 39.51770 | 2.64921 | 2231 ft | 219 kts | 238° |
| 2026-04-26 21:36 | 39.50949 | 2.63203 | 2720 ft | 228 kts | 238° |
| 2026-04-26 21:37 | 39.50103 | 2.61454 | 3306 ft | 233 kts | 237° |
| 2026-04-26 21:37 | 39.48994 | 2.59886 | 3710 ft | 244 kts | 213° |
| 2026-04-26 21:37 | 39.47475 | 2.58813 | 4107 ft | 256 kts | 203° |
| 2026-04-26 21:37 | 39.45747 | 2.58088 | 4535 ft | 267 kts | 189° |
| 2026-04-26 21:38 | 39.43895 | 2.57873 | 5115 ft | 270 kts | 177° |
| 2026-04-26 21:38 | 39.42022 | 2.58104 | 5748 ft | 272 kts | 168° |
| 2026-04-26 21:38 | 39.40201 | 2.58754 | 6330 ft | 274 kts | 155° |
| 2026-04-26 21:38 | 39.38601 | 2.60059 | 6932 ft | 275 kts | 133° |
| 2026-04-26 21:39 | 39.37623 | 2.62139 | 7581 ft | 275 kts | 105° |
| 2026-04-26 21:39 | 39.37451 | 2.64571 | 8267 ft | 276 kts | 83° |
| 2026-04-26 21:39 | 39.37892 | 2.66966 | 8919 ft | 277 kts | 70° |
| 2026-04-26 21:39 | 39.38605 | 2.69286 | 9594 ft | 280 kts | 67° |
| 2026-04-26 21:40 | 39.39383 | 2.71588 | 10320 ft | 282 kts | 66° |
| 2026-04-26 21:40 | 39.40183 | 2.73958 | 10730 ft | 296 kts | 67° |
| 2026-04-26 21:40 | 39.41007 | 2.76461 | 11126 ft | 310 kts | 68° |
| 2026-04-26 21:40 | 39.41858 | 2.79095 | 11462 ft | 326 kts | 68° |
| 2026-04-26 21:41 | 39.42742 | 2.81851 | 11869 ft | 338 kts | 68° |
| 2026-04-26 21:41 | 39.43647 | 2.84683 | 12480 ft | 345 kts | 68° |
| 2026-04-26 21:41 | 39.44562 | 2.87551 | 13194 ft | 348 kts | 68° |
| 2026-04-26 21:41 | 39.45486 | 2.90447 | 13887 ft | 352 kts | 68° |
| 2026-04-26 21:42 | 39.46418 | 2.93369 | 14568 ft | 355 kts | 68° |
| 2026-04-26 21:42 | 39.47358 | 2.96317 | 15290 ft | 358 kts | 68° |
| 2026-04-26 21:42 | 39.48305 | 2.99293 | 15993 ft | 361 kts | 68° |
| 2026-04-26 21:42 | 39.49261 | 3.02297 | 16651 ft | 365 kts | 68° |
| 2026-04-26 21:43 | 39.50226 | 3.05337 | 17322 ft | 368 kts | 68° |
| 2026-04-26 21:43 | 39.51199 | 3.08402 | 17949 ft | 372 kts | 68° |
| 2026-04-26 21:43 | 39.52180 | 3.11500 | 18600 ft | 375 kts | 68° |
| 2026-04-26 21:43 | 39.53168 | 3.14621 | 19252 ft | 378 kts | 68° |
| 2026-04-26 21:44 | 39.54165 | 3.17772 | 19822 ft | 382 kts | 68° |
| 2026-04-26 21:44 | 39.54863 | 3.19979 | 20292 ft | 383 kts | 68° |
| 2026-04-26 21:44 | 39.55873 | 3.23178 | 20848 ft | 387 kts | 68° |
| 2026-04-26 21:44 | 39.56892 | 3.26406 | 21428 ft | 391 kts | 68° |
| 2026-04-26 21:45 | 39.57918 | 3.29664 | 21981 ft | 394 kts | 68° |
| 2026-04-26 21:45 | 39.58952 | 3.32950 | 22536 ft | 397 kts | 68° |
| 2026-04-26 21:45 | 39.59994 | 3.36264 | 23068 ft | 400 kts | 68° |
| 2026-04-26 21:45 | 39.61041 | 3.39598 | 23602 ft | 403 kts | 68° |
| 2026-04-26 21:46 | 39.62097 | 3.42968 | 24087 ft | 407 kts | 68° |
| 2026-04-26 21:46 | 39.63160 | 3.46364 | 24595 ft | 410 kts | 68° |
| 2026-04-26 21:46 | 39.64230 | 3.49789 | 25056 ft | 413 kts | 68° |
| 2026-04-26 21:46 | 39.65309 | 3.53244 | 25541 ft | 416 kts | 68° |
| 2026-04-26 21:47 | 39.66394 | 3.56726 | 25997 ft | 420 kts | 68° |
| 2026-04-26 21:47 | 39.67488 | 3.60236 | 26452 ft | 423 kts | 68° |
| 2026-04-26 21:47 | 39.68587 | 3.63770 | 26904 ft | 425 kts | 68° |
| 2026-04-26 21:47 | 39.69692 | 3.67329 | 27361 ft | 428 kts | 68° |
| 2026-04-26 21:48 | 39.70804 | 3.70912 | 27769 ft | 431 kts | 68° |
| 2026-04-26 21:48 | 39.71922 | 3.74521 | 28217 ft | 434 kts | 68° |
| 2026-04-26 21:48 | 39.73047 | 3.78156 | 28616 ft | 437 kts | 68° |
| 2026-04-26 21:48 | 39.74180 | 3.81823 | 29001 ft | 440 kts | 68° |
| 2026-04-26 21:49 | 39.75319 | 3.85516 | 29402 ft | 443 kts | 68° |
| 2026-04-26 21:49 | 39.76457 | 3.89208 | 30045 ft | 439 kts | 68° |
| 2026-04-26 21:49 | 39.77589 | 3.92885 | 30599 ft | 438 kts | 68° |
| 2026-04-26 21:49 | 39.78715 | 3.96552 | 31072 ft | 438 kts | 68° |
| 2026-04-26 21:50 | 39.79838 | 4.00211 | 31575 ft | 437 kts | 68° |
| 2026-04-26 21:50 | 39.80574 | 4.02611 | 31899 ft | 436 kts | 68° |
| 2026-04-26 21:50 | 39.82074 | 4.07512 | 32509 ft | 436 kts | 68° |
| 2026-04-26 21:50 | 39.83187 | 4.11157 | 32943 ft | 435 kts | 68° |
| 2026-04-26 21:51 | 39.84297 | 4.14799 | 33371 ft | 435 kts | 68° |
| 2026-04-26 21:51 | 39.85412 | 4.18433 | 33793 ft | 434 kts | 67° |
| 2026-04-26 21:51 | 39.86618 | 4.22010 | 34168 ft | 433 kts | 63° |
| 2026-04-26 21:51 | 39.87995 | 4.25476 | 34562 ft | 432 kts | 60° |
| 2026-04-26 21:52 | 39.89467 | 4.28871 | 34847 ft | 432 kts | 59° |
| 2026-04-26 21:52 | 39.90984 | 4.32232 | 35130 ft | 432 kts | 58° |
| 2026-04-26 21:52 | 39.92516 | 4.35582 | 35391 ft | 432 kts | 58° |
| 2026-04-26 21:52 | 39.94049 | 4.38932 | 35664 ft | 432 kts | 58° |
| 2026-04-26 21:53 | 39.95576 | 4.42285 | 35914 ft | 432 kts | 58° |
| 2026-04-26 21:53 | 39.97096 | 4.45642 | 36132 ft | 432 kts | 58° |
| 2026-04-26 21:53 | 40.00137 | 4.52409 | 36153 ft | 433 kts | 59° |
| 2026-04-26 21:54 | 40.03148 | 4.59156 | 36156 ft | 431 kts | 59° |
| 2026-04-26 21:54 | 40.06227 | 4.65868 | 36153 ft | 432 kts | 56° |
| 2026-04-26 21:55 | 40.09830 | 4.72121 | 36153 ft | 432 kts | 50° |
| 2026-04-26 21:55 | 40.13666 | 4.78137 | 36154 ft | 432 kts | 49° |
| 2026-04-26 21:56 | 40.17532 | 4.84113 | 36157 ft | 432 kts | 49° |
| 2026-04-26 21:56 | 40.21385 | 4.90114 | 36152 ft | 432 kts | 49° |
| 2026-04-26 21:57 | 40.25223 | 4.96139 | 36153 ft | 432 kts | 49° |
| 2026-04-26 21:57 | 40.29055 | 5.02184 | 36154 ft | 433 kts | 50° |
| 2026-04-26 21:58 | 40.32884 | 5.08248 | 36153 ft | 433 kts | 50° |
| 2026-04-26 21:58 | 40.36711 | 5.14323 | 36150 ft | 433 kts | 49° |
| 2026-04-26 21:59 | 40.40532 | 5.20401 | 36155 ft | 433 kts | 49° |
| 2026-04-26 21:59 | 40.44349 | 5.26485 | 36150 ft | 433 kts | 49° |
| 2026-04-26 22:00 | 40.48160 | 5.32572 | 36152 ft | 433 kts | 49° |
| 2026-04-26 22:00 | 40.51977 | 5.38678 | 36154 ft | 434 kts | 49° |
| 2026-04-26 22:01 | 40.55798 | 5.44805 | 36149 ft | 434 kts | 49° |
| 2026-04-26 22:01 | 40.59620 | 5.50946 | 36157 ft | 435 kts | 49° |
| 2026-04-26 22:02 | 40.62784 | 5.56038 | 36156 ft | 434 kts | 49° |
| 2026-04-26 22:02 | 40.67250 | 5.63241 | 36151 ft | 435 kts | 49° |
| 2026-04-26 22:03 | 40.71066 | 5.69406 | 36152 ft | 435 kts | 50° |
| 2026-04-26 22:03 | 40.74884 | 5.75590 | 36150 ft | 436 kts | 50° |
| 2026-04-26 22:04 | 40.78698 | 5.81778 | 36154 ft | 436 kts | 50° |
| 2026-04-26 22:04 | 40.82513 | 5.87980 | 36154 ft | 436 kts | 50° |
| 2026-04-26 22:05 | 40.86328 | 5.94197 | 36155 ft | 437 kts | 50° |
| 2026-04-26 22:05 | 40.90142 | 6.00424 | 36156 ft | 437 kts | 50° |
| 2026-04-26 22:06 | 40.93957 | 6.06664 | 36153 ft | 438 kts | 50° |
| 2026-04-26 22:06 | 40.97769 | 6.12911 | 36147 ft | 438 kts | 50° |
| 2026-04-26 22:07 | 41.01584 | 6.19177 | 36146 ft | 439 kts | 50° |
| 2026-04-26 22:07 | 41.04749 | 6.24385 | 36152 ft | 438 kts | 50° |
| 2026-04-26 22:08 | 41.09203 | 6.31730 | 36148 ft | 438 kts | 50° |
| 2026-04-26 22:08 | 41.13008 | 6.38018 | 36145 ft | 439 kts | 50° |
| 2026-04-26 22:09 | 41.16821 | 6.44333 | 36142 ft | 439 kts | 50° |
| 2026-04-26 22:09 | 41.20623 | 6.50642 | 36149 ft | 438 kts | 50° |
| 2026-04-26 22:10 | 41.24419 | 6.56954 | 36147 ft | 439 kts | 50° |
| 2026-04-26 22:10 | 41.28262 | 6.63218 | 36142 ft | 438 kts | 49° |
| 2026-04-26 22:11 | 41.32124 | 6.69406 | 36144 ft | 439 kts | 49° |
| 2026-04-26 22:11 | 41.36015 | 6.75644 | 36148 ft | 439 kts | 49° |
| 2026-04-26 22:12 | 41.39902 | 6.81902 | 36143 ft | 441 kts | 49° |
| 2026-04-26 22:12 | 41.43788 | 6.88183 | 36146 ft | 440 kts | 49° |
| 2026-04-26 22:13 | 41.47663 | 6.94465 | 36144 ft | 440 kts | 49° |
| 2026-04-26 22:13 | 41.51535 | 7.00758 | 36144 ft | 440 kts | 49° |
| 2026-04-26 22:14 | 41.55405 | 7.07064 | 36143 ft | 441 kts | 49° |
| 2026-04-26 22:14 | 41.59276 | 7.13384 | 36143 ft | 441 kts | 49° |
| 2026-04-26 22:15 | 41.63152 | 7.19724 | 36141 ft | 442 kts | 49° |
| 2026-04-26 22:15 | 41.67028 | 7.26077 | 36141 ft | 442 kts | 49° |
| 2026-04-26 22:16 | 41.70896 | 7.32432 | 36144 ft | 441 kts | 49° |
| 2026-04-26 22:16 | 41.74762 | 7.38796 | 36144 ft | 442 kts | 49° |
| 2026-04-26 22:17 | 41.78625 | 7.45170 | 36143 ft | 442 kts | 49° |
| 2026-04-26 22:17 | 41.82493 | 7.51563 | 36145 ft | 444 kts | 49° |
| 2026-04-26 22:18 | 41.86366 | 7.57979 | 36146 ft | 443 kts | 49° |
| 2026-04-26 22:18 | 41.90236 | 7.64404 | 36147 ft | 443 kts | 49° |
| 2026-04-26 22:19 | 41.94102 | 7.70838 | 36147 ft | 444 kts | 50° |
| 2026-04-26 22:19 | 41.97964 | 7.77277 | 36148 ft | 444 kts | 50° |
| 2026-04-26 22:20 | 42.01185 | 7.82658 | 36148 ft | 443 kts | 50° |
| 2026-04-26 22:20 | 42.05667 | 7.90161 | 36152 ft | 444 kts | 50° |
| 2026-04-26 22:21 | 42.09518 | 7.96624 | 36152 ft | 444 kts | 50° |
| 2026-04-26 22:21 | 42.13373 | 8.03106 | 36143 ft | 444 kts | 50° |
| 2026-04-26 22:22 | 42.17216 | 8.09584 | 36135 ft | 443 kts | 50° |
| 2026-04-26 22:22 | 42.21054 | 8.16067 | 36137 ft | 444 kts | 50° |
| 2026-04-26 22:23 | 42.24888 | 8.22558 | 36138 ft | 444 kts | 50° |
| 2026-04-26 22:23 | 42.28718 | 8.29054 | 36139 ft | 443 kts | 50° |
| 2026-04-26 22:24 | 42.32816 | 8.35206 | 36135 ft | 440 kts | 38° |
| 2026-04-26 22:24 | 42.35314 | 8.37532 | 36145 ft | 436 kts | 26° |
| 2026-04-26 22:24 | 42.38027 | 8.39334 | 36146 ft | 435 kts | 21° |
| 2026-04-26 22:25 | 42.43611 | 8.42443 | 36145 ft | 434 kts | 19° |
| 2026-04-26 22:25 | 42.49227 | 8.45406 | 36150 ft | 434 kts | 19° |
| 2026-04-26 22:26 | 42.54836 | 8.48419 | 36148 ft | 435 kts | 19° |
| 2026-04-26 22:26 | 42.60436 | 8.51491 | 36147 ft | 435 kts | 19° |
| 2026-04-26 22:27 | 42.66025 | 8.54594 | 36147 ft | 435 kts | 19° |
| 2026-04-26 22:27 | 42.71616 | 8.57717 | 36145 ft | 435 kts | 19° |
| 2026-04-26 22:28 | 42.77205 | 8.60849 | 36143 ft | 435 kts | 19° |
| 2026-04-26 22:28 | 42.82792 | 8.63989 | 36135 ft | 435 kts | 19° |
| 2026-04-26 22:29 | 42.88397 | 8.67144 | 36142 ft | 435 kts | 20° |
| 2026-04-26 22:29 | 42.93972 | 8.70288 | 36138 ft | 435 kts | 20° |
| 2026-04-26 22:30 | 42.99551 | 8.73439 | 36136 ft | 435 kts | 20° |
| 2026-04-26 22:30 | 43.05126 | 8.76595 | 36132 ft | 435 kts | 20° |
| 2026-04-26 22:31 | 43.10703 | 8.79759 | 36133 ft | 435 kts | 20° |
| 2026-04-26 22:31 | 43.16262 | 8.82918 | 36134 ft | 434 kts | 20° |
| 2026-04-26 22:32 | 43.21826 | 8.86087 | 36130 ft | 434 kts | 20° |
| 2026-04-26 22:32 | 43.27385 | 8.89259 | 36135 ft | 434 kts | 20° |
| 2026-04-26 22:33 | 43.35740 | 8.93958 | 36132 ft | 433 kts | 17° |
| 2026-04-26 22:34 | 43.41536 | 8.95840 | 36131 ft | 428 kts | 2° |
| 2026-04-26 22:34 | 43.47460 | 8.96137 | 36132 ft | 427 kts | 357° |
| 2026-04-26 22:35 | 43.53377 | 8.96028 | 36133 ft | 425 kts | 356° |
| 2026-04-26 22:35 | 43.59266 | 8.96706 | 36129 ft | 431 kts | 14° |
| 2026-04-26 22:35 | 43.62034 | 8.98300 | 36136 ft | 435 kts | 27° |
| 2026-04-26 22:36 | 43.64550 | 9.00625 | 36134 ft | 438 kts | 37° |
| 2026-04-26 22:36 | 43.68848 | 9.06572 | 36131 ft | 441 kts | 50° |
| 2026-04-26 22:37 | 43.72288 | 9.13585 | 36132 ft | 444 kts | 56° |
| 2026-04-26 22:37 | 43.75522 | 9.20824 | 36132 ft | 444 kts | 57° |
| 2026-04-26 22:38 | 43.78749 | 9.28073 | 36132 ft | 444 kts | 56° |
| 2026-04-26 22:38 | 43.81989 | 9.35293 | 36131 ft | 442 kts | 56° |
| 2026-04-26 22:39 | 43.85242 | 9.42502 | 36131 ft | 443 kts | 56° |
| 2026-04-26 22:39 | 43.88497 | 9.49702 | 36132 ft | 442 kts | 56° |
| 2026-04-26 22:40 | 43.91751 | 9.56902 | 36132 ft | 442 kts | 56° |
| 2026-04-26 22:40 | 43.95002 | 9.64109 | 36132 ft | 443 kts | 56° |
| 2026-04-26 22:41 | 43.98247 | 9.71318 | 36130 ft | 443 kts | 56° |
| 2026-04-26 22:41 | 44.01496 | 9.78557 | 36129 ft | 443 kts | 56° |
| 2026-04-26 22:42 | 44.04740 | 9.85800 | 36140 ft | 443 kts | 56° |
| 2026-04-26 22:42 | 44.07983 | 9.93057 | 36140 ft | 444 kts | 56° |
| 2026-04-26 22:43 | 44.11228 | 10.00337 | 36143 ft | 443 kts | 56° |
| 2026-04-26 22:43 | 44.14479 | 10.07649 | 36146 ft | 444 kts | 56° |
| 2026-04-26 22:44 | 44.17709 | 10.14932 | 36148 ft | 443 kts | 56° |
| 2026-04-26 22:44 | 44.20935 | 10.22224 | 36171 ft | 443 kts | 56° |
| 2026-04-26 22:45 | 44.24157 | 10.29522 | 36193 ft | 444 kts | 56° |
| 2026-04-26 22:45 | 44.27375 | 10.36832 | 36196 ft | 444 kts | 56° |
| 2026-04-26 22:46 | 44.30587 | 10.44149 | 36185 ft | 443 kts | 56° |
| 2026-04-26 22:46 | 44.33796 | 10.51479 | 36180 ft | 444 kts | 56° |
| 2026-04-26 22:47 | 44.37004 | 10.58827 | 36163 ft | 445 kts | 56° |
| 2026-04-26 22:47 | 44.40192 | 10.66147 | 36151 ft | 444 kts | 57° |
| 2026-04-26 22:48 | 44.43407 | 10.73546 | 36141 ft | 445 kts | 57° |
| 2026-04-26 22:48 | 44.46606 | 10.80924 | 36130 ft | 445 kts | 57° |
| 2026-04-26 22:49 | 44.49800 | 10.88312 | 36127 ft | 445 kts | 57° |
| 2026-04-26 22:49 | 44.52993 | 10.95716 | 36124 ft | 445 kts | 57° |
| 2026-04-26 22:50 | 44.56180 | 11.03127 | 36112 ft | 445 kts | 57° |
| 2026-04-26 22:50 | 44.59361 | 11.10544 | 36111 ft | 445 kts | 57° |
| 2026-04-26 22:51 | 44.62539 | 11.17971 | 36113 ft | 445 kts | 56° |
| 2026-04-26 22:51 | 44.65710 | 11.25404 | 36108 ft | 445 kts | 57° |
| 2026-04-26 22:52 | 44.68876 | 11.32842 | 36111 ft | 445 kts | 57° |
| 2026-04-26 22:52 | 44.72017 | 11.40242 | 36107 ft | 446 kts | 56° |
| 2026-04-26 22:53 | 44.75175 | 11.47699 | 36107 ft | 445 kts | 57° |
| 2026-04-26 22:53 | 44.78328 | 11.55166 | 36104 ft | 446 kts | 57° |
| 2026-04-26 22:54 | 44.81479 | 11.62647 | 36096 ft | 446 kts | 57° |
| 2026-04-26 22:54 | 44.84623 | 11.70136 | 36103 ft | 445 kts | 57° |
| 2026-04-26 22:55 | 44.87787 | 11.77689 | 36097 ft | 446 kts | 57° |
| 2026-04-26 22:55 | 44.90900 | 11.85140 | 36101 ft | 445 kts | 57° |
| 2026-04-26 22:56 | 44.94038 | 11.92672 | 36094 ft | 447 kts | 57° |
| 2026-04-26 22:56 | 44.97169 | 12.00207 | 36096 ft | 446 kts | 57° |
| 2026-04-26 22:57 | 45.00294 | 12.07747 | 36094 ft | 446 kts | 57° |
| 2026-04-26 22:57 | 45.03413 | 12.15295 | 36093 ft | 446 kts | 57° |
| 2026-04-26 22:58 | 45.06531 | 12.22861 | 36093 ft | 447 kts | 57° |
| 2026-04-26 22:58 | 45.09642 | 12.30434 | 36091 ft | 447 kts | 57° |
| 2026-04-26 22:59 | 45.12765 | 12.38053 | 36095 ft | 446 kts | 57° |
| 2026-04-26 22:59 | 45.15862 | 12.45629 | 36094 ft | 445 kts | 57° |
| 2026-04-26 23:00 | 45.18951 | 12.53201 | 36100 ft | 446 kts | 57° |
| 2026-04-26 23:00 | 45.22040 | 12.60789 | 36101 ft | 446 kts | 57° |
| 2026-04-26 23:01 | 45.25129 | 12.68401 | 36097 ft | 445 kts | 58° |
| 2026-04-26 23:01 | 45.28211 | 12.76016 | 36097 ft | 447 kts | 58° |
| 2026-04-26 23:02 | 45.31287 | 12.83640 | 36100 ft | 447 kts | 57° |
| 2026-04-26 23:02 | 45.34363 | 12.91281 | 36099 ft | 447 kts | 57° |
| 2026-04-26 23:03 | 45.37436 | 12.98938 | 36099 ft | 448 kts | 57° |
| 2026-04-26 23:03 | 45.40500 | 13.06595 | 36102 ft | 447 kts | 57° |
| 2026-04-26 23:04 | 45.43559 | 13.14261 | 36108 ft | 447 kts | 57° |
| 2026-04-26 23:04 | 45.46608 | 13.21926 | 36108 ft | 447 kts | 57° |
| 2026-04-26 23:05 | 45.49656 | 13.29607 | 36121 ft | 447 kts | 58° |
| 2026-04-26 23:05 | 45.52709 | 13.37325 | 36115 ft | 447 kts | 58° |
| 2026-04-26 23:06 | 45.55749 | 13.45029 | 36125 ft | 447 kts | 58° |
| 2026-04-26 23:06 | 45.58837 | 13.52712 | 36138 ft | 447 kts | 55° |
| 2026-04-26 23:07 | 45.62239 | 13.60021 | 36140 ft | 446 kts | 52° |
| 2026-04-26 23:07 | 45.65837 | 13.67261 | 36143 ft | 447 kts | 52° |
| 2026-04-26 23:08 | 45.69440 | 13.74491 | 36180 ft | 447 kts | 52° |
| 2026-04-26 23:08 | 45.73021 | 13.81749 | 36171 ft | 447 kts | 52° |
| 2026-04-26 23:09 | 45.76574 | 13.89015 | 36189 ft | 448 kts | 52° |
| 2026-04-26 23:09 | 45.80125 | 13.96322 | 36188 ft | 447 kts | 52° |
| 2026-04-26 23:10 | 45.83655 | 14.03609 | 36206 ft | 447 kts | 52° |
| 2026-04-26 23:10 | 45.87186 | 14.10919 | 36211 ft | 447 kts | 52° |
| 2026-04-26 23:11 | 45.90684 | 14.18178 | 36228 ft | 448 kts | 52° |
| 2026-04-26 23:11 | 45.94217 | 14.25524 | 36223 ft | 448 kts | 52° |
| 2026-04-26 23:12 | 45.97739 | 14.32873 | 36224 ft | 449 kts | 52° |
| 2026-04-26 23:12 | 46.01262 | 14.40243 | 36229 ft | 448 kts | 52° |
| 2026-04-26 23:13 | 46.04774 | 14.47612 | 36239 ft | 447 kts | 52° |
| 2026-04-26 23:13 | 46.08277 | 14.54981 | 36236 ft | 446 kts | 52° |
| 2026-04-26 23:14 | 46.11766 | 14.62336 | 36244 ft | 448 kts | 52° |
| 2026-04-26 23:14 | 46.15287 | 14.69781 | 36242 ft | 447 kts | 53° |
| 2026-04-26 23:15 | 46.18779 | 14.77181 | 36241 ft | 448 kts | 53° |
| 2026-04-26 23:15 | 46.22248 | 14.84551 | 36240 ft | 448 kts | 53° |
| 2026-04-26 23:16 | 46.25734 | 14.91981 | 36246 ft | 447 kts | 53° |
| 2026-04-26 23:16 | 46.29211 | 14.99411 | 36254 ft | 448 kts | 53° |
| 2026-04-26 23:17 | 46.32682 | 15.06852 | 36252 ft | 447 kts | 53° |
| 2026-04-26 23:17 | 46.36145 | 15.14293 | 36251 ft | 447 kts | 53° |
| 2026-04-26 23:18 | 46.39607 | 15.21745 | 36239 ft | 447 kts | 53° |
| 2026-04-26 23:18 | 46.43036 | 15.29149 | 36219 ft | 446 kts | 53° |
| 2026-04-26 23:18 | 46.44758 | 15.32874 | 35953 ft | 443 kts | 53° |
| 2026-04-26 23:19 | 46.46455 | 15.36557 | 35529 ft | 440 kts | 53° |
| 2026-04-26 23:19 | 46.48144 | 15.40225 | 35147 ft | 436 kts | 52° |
| 2026-04-26 23:19 | 46.49821 | 15.43865 | 34645 ft | 435 kts | 52° |
| 2026-04-26 23:19 | 46.51545 | 15.47440 | 34133 ft | 431 kts | 49° |
| 2026-04-26 23:20 | 46.53481 | 15.50680 | 33648 ft | 422 kts | 38° |
| 2026-04-26 23:20 | 46.55748 | 15.53187 | 33191 ft | 412 kts | 25° |
| 2026-04-26 23:20 | 46.58258 | 15.55078 | 32742 ft | 404 kts | 20° |
| 2026-04-26 23:20 | 46.60807 | 15.56714 | 32290 ft | 400 kts | 18° |
| 2026-04-26 23:21 | 46.63357 | 15.58242 | 31844 ft | 396 kts | 17° |
| 2026-04-26 23:21 | 46.65894 | 15.59730 | 31399 ft | 393 kts | 17° |
| 2026-04-26 23:21 | 46.68413 | 15.61209 | 30956 ft | 390 kts | 17° |
| 2026-04-26 23:21 | 46.70909 | 15.62688 | 30489 ft | 388 kts | 17° |
| 2026-04-26 23:22 | 46.73387 | 15.64173 | 30038 ft | 385 kts | 17° |
| 2026-04-26 23:22 | 46.75849 | 15.65662 | 29584 ft | 382 kts | 18° |
| 2026-04-26 23:22 | 46.78305 | 15.67158 | 29134 ft | 379 kts | 18° |
| 2026-04-26 23:22 | 46.80724 | 15.68639 | 28685 ft | 377 kts | 18° |
| 2026-04-26 23:23 | 46.83124 | 15.70113 | 28246 ft | 374 kts | 18° |
| 2026-04-26 23:23 | 46.85508 | 15.71578 | 27801 ft | 372 kts | 18° |
| 2026-04-26 23:23 | 46.87877 | 15.73036 | 27365 ft | 369 kts | 18° |
| 2026-04-26 23:23 | 46.90230 | 15.74485 | 26933 ft | 367 kts | 18° |
| 2026-04-26 23:24 | 46.92534 | 15.75907 | 26502 ft | 364 kts | 18° |
| 2026-04-26 23:24 | 46.94859 | 15.77345 | 26070 ft | 362 kts | 18° |
| 2026-04-26 23:24 | 46.97168 | 15.78772 | 25638 ft | 359 kts | 18° |
| 2026-04-26 23:24 | 46.99456 | 15.80188 | 25214 ft | 357 kts | 18° |
| 2026-04-26 23:25 | 47.01729 | 15.81596 | 24785 ft | 355 kts | 18° |
| 2026-04-26 23:25 | 47.03989 | 15.83000 | 24360 ft | 353 kts | 19° |
| 2026-04-26 23:25 | 47.06237 | 15.84396 | 23942 ft | 350 kts | 19° |
| 2026-04-26 23:25 | 47.08468 | 15.85782 | 23536 ft | 348 kts | 19° |
| 2026-04-26 23:26 | 47.10686 | 15.87164 | 23125 ft | 346 kts | 19° |
| 2026-04-26 23:26 | 47.12851 | 15.88514 | 22732 ft | 343 kts | 19° |
| 2026-04-26 23:26 | 47.15054 | 15.89889 | 22332 ft | 340 kts | 19° |
| 2026-04-26 23:26 | 47.17218 | 15.91240 | 21934 ft | 337 kts | 19° |
| 2026-04-26 23:27 | 47.19362 | 15.92579 | 21540 ft | 334 kts | 19° |
| 2026-04-26 23:27 | 47.21489 | 15.93909 | 21155 ft | 332 kts | 19° |
| 2026-04-26 23:27 | 47.23600 | 15.95227 | 20760 ft | 329 kts | 19° |
| 2026-04-26 23:27 | 47.25008 | 15.96107 | 20496 ft | 328 kts | 19° |
| 2026-04-26 23:28 | 47.27774 | 15.97841 | 19987 ft | 325 kts | 19° |
| 2026-04-26 23:28 | 47.29841 | 15.99136 | 19592 ft | 323 kts | 19° |
| 2026-04-26 23:28 | 47.31900 | 16.00424 | 19192 ft | 321 kts | 19° |
| 2026-04-26 23:28 | 47.33946 | 16.01708 | 18798 ft | 319 kts | 20° |
| 2026-04-26 23:29 | 47.35977 | 16.02985 | 18410 ft | 317 kts | 20° |
| 2026-04-26 23:29 | 47.38010 | 16.04207 | 18263 ft | 316 kts | 17° |
| 2026-04-26 23:29 | 47.40123 | 16.05292 | 18255 ft | 326 kts | 15° |
| 2026-04-26 23:29 | 47.42278 | 16.06317 | 18242 ft | 325 kts | 14° |
| 2026-04-26 23:30 | 47.44392 | 16.07317 | 17949 ft | 322 kts | 14° |
| 2026-04-26 23:30 | 47.46523 | 16.08343 | 17448 ft | 323 kts | 15° |
| 2026-04-26 23:30 | 47.48645 | 16.09385 | 17040 ft | 321 kts | 15° |
| 2026-04-26 23:30 | 47.50746 | 16.10428 | 16650 ft | 318 kts | 15° |
| 2026-04-26 23:31 | 47.52831 | 16.11466 | 16257 ft | 316 kts | 15° |
| 2026-04-26 23:31 | 47.54897 | 16.12496 | 15883 ft | 312 kts | 15° |
| 2026-04-26 23:31 | 47.56943 | 16.13517 | 15485 ft | 310 kts | 15° |
| 2026-04-26 23:31 | 47.58969 | 16.14526 | 15118 ft | 306 kts | 15° |
| 2026-04-26 23:32 | 47.60978 | 16.15524 | 14727 ft | 304 kts | 14° |
| 2026-04-26 23:32 | 47.62971 | 16.16514 | 14347 ft | 301 kts | 14° |
| 2026-04-26 23:32 | 47.64943 | 16.17499 | 13970 ft | 299 kts | 14° |
| 2026-04-26 23:32 | 47.66899 | 16.18480 | 13567 ft | 297 kts | 14° |
| 2026-04-26 23:33 | 47.68851 | 16.19458 | 13153 ft | 296 kts | 14° |
| 2026-04-26 23:33 | 47.70794 | 16.20431 | 12772 ft | 294 kts | 14° |
| 2026-04-26 23:33 | 47.72716 | 16.21395 | 12380 ft | 292 kts | 14° |
| 2026-04-26 23:33 | 47.74630 | 16.22356 | 11986 ft | 290 kts | 14° |
| 2026-04-26 23:34 | 47.76508 | 16.23416 | 11695 ft | 289 kts | 21° |
| 2026-04-26 23:34 | 47.78218 | 16.25027 | 11476 ft | 296 kts | 33° |
| 2026-04-26 23:34 | 47.79782 | 16.27033 | 11249 ft | 298 kts | 37° |
| 2026-04-26 23:34 | 47.81299 | 16.29125 | 11026 ft | 297 kts | 38° |
| 2026-04-26 23:35 | 47.82811 | 16.31188 | 10802 ft | 292 kts | 37° |
| 2026-04-26 23:35 | 47.84302 | 16.33179 | 10581 ft | 285 kts | 36° |
| 2026-04-26 23:35 | 47.85768 | 16.35105 | 10362 ft | 278 kts | 35° |
| 2026-04-26 23:35 | 47.87208 | 16.36973 | 10132 ft | 272 kts | 35° |
| 2026-04-26 23:36 | 47.88618 | 16.38796 | 9919 ft | 266 kts | 34° |
| 2026-04-26 23:36 | 47.90000 | 16.40579 | 9707 ft | 261 kts | 34° |
| 2026-04-26 23:36 | 47.91353 | 16.42329 | 9494 ft | 256 kts | 34° |
| 2026-04-26 23:36 | 47.92691 | 16.44027 | 9270 ft | 251 kts | 31° |
| 2026-04-26 23:37 | 47.94142 | 16.45416 | 9058 ft | 247 kts | 22° |
| 2026-04-26 23:37 | 47.95678 | 16.46523 | 8852 ft | 245 kts | 19° |
| 2026-04-26 23:37 | 47.97199 | 16.47555 | 8643 ft | 244 kts | 19° |
| 2026-04-26 23:37 | 47.98772 | 16.48432 | 8416 ft | 240 kts | 8° |
| 2026-04-26 23:38 | 48.00402 | 16.48594 | 8188 ft | 233 kts | 347° |
| 2026-04-26 23:38 | 48.01957 | 16.47920 | 7964 ft | 229 kts | 333° |
| 2026-04-26 23:38 | 48.03309 | 16.46767 | 7735 ft | 227 kts | 320° |
| 2026-04-26 23:38 | 48.04371 | 16.45046 | 7500 ft | 226 kts | 302° |
| 2026-04-26 23:39 | 48.05169 | 16.43038 | 7271 ft | 225 kts | 299° |
| 2026-04-26 23:39 | 48.05944 | 16.41011 | 7037 ft | 225 kts | 300° |
| 2026-04-26 23:39 | 48.06733 | 16.38995 | 6809 ft | 225 kts | 300° |
| 2026-04-26 23:39 | 48.07533 | 16.36985 | 6575 ft | 226 kts | 300° |
| 2026-04-26 23:40 | 48.08339 | 16.34967 | 6348 ft | 227 kts | 300° |
| 2026-04-26 23:40 | 48.09148 | 16.32939 | 6119 ft | 228 kts | 300° |
| 2026-04-26 23:40 | 48.09960 | 16.30900 | 5870 ft | 229 kts | 300° |
| 2026-04-26 23:40 | 48.10776 | 16.28848 | 5636 ft | 228 kts | 300° |
| 2026-04-26 23:41 | 48.11587 | 16.26806 | 5401 ft | 230 kts | 300° |
| 2026-04-26 23:41 | 48.12381 | 16.24731 | 5162 ft | 231 kts | 297° |
| 2026-04-26 23:41 | 48.13098 | 16.22589 | 4977 ft | 229 kts | 297° |
| 2026-04-26 23:41 | 48.14101 | 16.20799 | 4956 ft | 226 kts | 328° |
| 2026-04-26 23:42 | 48.15569 | 16.20275 | 4744 ft | 219 kts | 6° |
| 2026-04-26 23:42 | 48.17583 | 16.23363 | 3732 ft | 224 kts | 79° |
| 2026-04-26 23:42 | 48.17821 | 16.25626 | 3470 ft | 219 kts | 82° |
| 2026-04-26 23:43 | 48.18045 | 16.27878 | 3464 ft | 222 kts | 82° |
| 2026-04-26 23:43 | 48.18277 | 16.30156 | 3465 ft | 218 kts | 81° |
| 2026-04-26 23:43 | 48.18448 | 16.32316 | 3464 ft | 200 kts | 87° |
| 2026-04-26 23:43 | 48.18340 | 16.34314 | 3465 ft | 190 kts | 104° |
| 2026-04-26 23:44 | 48.17862 | 16.36165 | 3293 ft | 190 kts | 114° |
| 2026-04-26 23:44 | 48.17288 | 16.37942 | 3006 ft | 189 kts | 115° |
| 2026-04-26 23:44 | 48.16720 | 16.39704 | 2736 ft | 188 kts | 115° |
| 2026-04-26 23:44 | 48.16163 | 16.41425 | 2491 ft | 177 kts | 115° |
| 2026-04-26 23:45 | 48.15640 | 16.43033 | 2202 ft | 166 kts | 115° |
| 2026-04-26 23:45 | 48.15310 | 16.44047 | 2060 ft | 158 kts | 115° |
| 2026-04-26 23:45 | 48.14694 | 16.45944 | 1795 ft | 149 kts | 115° |
| 2026-04-26 23:45 | 48.14248 | 16.47313 | 1553 ft | 143 kts | 115° |
| 2026-04-26 23:46 | 48.13807 | 16.48668 | 1361 ft | 145 kts | 115° |
| 2026-04-26 23:46 | 48.13367 | 16.50021 | 1157 ft | 145 kts | 115° |
| 2026-04-26 23:46 | 48.12923 | 16.51378 | 959 ft | 145 kts | 115° |
| 2026-04-26 23:46 | 48.12480 | 16.52732 | 756 ft | 145 kts | 116° |
| 2026-04-26 23:47 | 48.12042 | 16.54072 | 615 ft | 138 kts | 115° |
| 2026-04-26 23:47 | 48.11694 | 16.55142 | 610 ft | 86 kts | 115° |
| 2026-04-26 23:47 | 48.11513 | 16.55738 | 609 ft | 44 kts | 102° |
| 2026-04-26 23:47 | 48.11507 | 16.56068 | 609 ft | 13 kts | 81° |
| 2026-04-26 23:48 | 48.11540 | 16.56131 | 609 ft | 6 kts | 11° |
| 2026-04-26 23:48 | 48.11582 | 16.56113 | 609 ft | 6 kts | 301° |
| 2026-04-26 23:48 | 48.11606 | 16.56055 | 609 ft | 6 kts | 298° |
| 2026-04-26 23:48 | 48.11626 | 16.55995 | 610 ft | 6 kts | 294° |
| 2026-04-26 23:49 | 48.11645 | 16.55934 | 609 ft | 6 kts | 295° |
| 2026-04-26 23:49 | 48.11685 | 16.55811 | 609 ft | 19 kts | 296° |
| 2026-04-26 23:49 | 48.11744 | 16.55632 | 609 ft | 19 kts | 296° |
| 2026-04-26 23:49 | 48.11802 | 16.55455 | 609 ft | 17 kts | 300° |
| 2026-04-26 23:50 | 48.11855 | 16.55298 | 609 ft | 16 kts | 294° |
| 2026-04-26 23:50 | 48.11921 | 16.55198 | 609 ft | 12 kts | 17° |
| 2026-04-26 23:50 | 48.11963 | 16.55305 | 609 ft | 12 kts | 40° |
| 2026-04-26 23:50 | 48.12012 | 16.55310 | 609 ft | 7 kts | 298° |
| 2026-04-26 23:51 | 48.12026 | 16.55266 | 609 ft | 0 kts | 295° |